Terminal Aerodrome Forecast
Issued by NWS Louisville, KY

Home | Current Version | Previous Version | Text Only | Print | Product List | Glossary On
Versions: 1 2 3 4 5 6 7 8 9 10 11 12 13 14 15 16 17 18 19 20
000
FTUS43 KLMK 160700 AAA
TAFBWG
TAF AMD
KBWG 160705Z 1607/1706 18010KT P6SM VCSH FEW015 BKN025
      WS018/21037KT
     FM160900 24012G20KT P6SM BKN015
     FM162300 27008KT P6SM BKN018=

USA.gov is the U.S. government's official web portal to all federal, state and local government web resources and services.